Penistone, United Kingdom
Current Conditions -  °F | °C
As of 5:50 AM on Thursday 29 Jan 2015 (Local Time) from EGNM Reporting Station
Snow Showers Snow Showers  
Wind Chill: 22°   Ceiling: Unl
Heat Index: 34°   Visibility: 6mi
Dew Point: 30°   Wind: 20mph
Humidity: 87%   Direction: 260°W
Pressure: 29"   Gusts: NA
Location:  53.53°N, 1.63°W
Report Text: EGNM 290550Z 26017KT 230V300 9999 -SHSN FEW009 01/M01 Q0982
Loading
Personal Weather Stations






























Interactive Weather Map New forecast layout! Learn more

10-Day Weather Forecast

Advertisements
Track Severe Weather on mobile